Latest Weather Observations for Cobar Airport

IDN60801

Issued at 1:02 am EDT Friday 9 December 2016 (issued every 30 minutes, with the page automatically refreshed every 10 minutes)

About weather observations | Map of weather stations | Latest weather observations for NSW | Other Formats
Station Details ID: 048237 Name: COBAR AIRPORT AWS Lat: -31.54 Lon: 145.80 Height: 218.0 m
Data from the previous 72 hours. | See also: Recent months at Cobar Airport
Date/Time
EDT
Temp
°C
App
Temp
°C
Dew
Point
°C
Rel
Hum
%
Delta-T
°C
Wind Press
QNH
hPa
Press
MSL
hPa
Rain since
9am
mm
Dir  Spd
km/h
Gust
km/h
Spd
kts
Gust
kts
09/12:30am 15.9 17.1 15.9 100 0.0 SW 4 6 2 3 1011.3 1010.1 10.8
09/12:00am 15.9 16.7 15.9 100 0.0 SW 6 6 3 3 1011.2 1010.0 10.8
 
Date/Time
EDT
Temp
°C
App
Temp
°C
Dew
Point
°C
Rel
Hum
%
Delta-T
°C
Wind Press
QNH
hPa
Press
MSL
hPa
Rain since
9am
mm
Dir  Spd
km/h
Gust
km/h
Spd
kts
Gust
kts
08/11:30pm 15.6 16.0 15.4 99 0.1 SW 7 7 4 4 1010.9 1009.7 10.8
08/11:00pm 16.0 17.9 15.8 99 0.1 CALM 0 6 0 3 1010.6 1009.4 10.8
08/10:30pm 16.1 16.9 15.9 99 0.1 SW 6 7 3 4 1009.7 1008.6 10.8
08/10:00pm 16.3 17.0 16.1 99 0.1 SW 7 7 4 4 1009.2 1008.1 10.8
08/09:30pm 16.6 17.0 16.4 99 0.1 SSW 9 9 5 5 1008.6 1007.4 10.8
08/09:00pm 17.1 18.0 16.5 96 0.4 SSW 7 9 4 5 1008.5 1007.3 10.8
08/08:30pm 17.6 17.4 16.8 95 0.5 SSW 13 19 7 10 1008.3 1007.1 10.8
08/08:06pm 17.6 15.5 16.3 92 0.8 SSW 22 35 12 19 1008.3 1007.1 10.8
08/08:00pm 17.6 14.9 16.5 93 0.7 S 26 35 14 19 1008.2 1007.0 10.8
08/07:30pm 18.0 15.0 17.8 99 0.1 SSW 30 41 16 22 1007.3 1006.1 10.8
08/07:00pm 19.0 17.6 18.8 99 0.1 SW 24 35 13 19 1006.5 1005.3 10.8
08/06:30pm 20.4 19.3 20.2 99 0.1 SSW 26 39 14 21 1005.7 1004.5 10.8
08/06:00pm 21.3 21.9 21.3 100 0.0 SW 20 28 11 15 1004.6 1003.4 10.8
08/05:51pm 21.1 22.1 21.1 100 0.0 SW 17 22 9 12 1004.6 1003.4 10.8
08/05:30pm 20.8 22.4 20.8 100 0.0 WNW 13 20 7 11 1005.1 1003.8 9.6
08/05:00pm 20.7 20.5 20.5 99 0.1 WSW 22 33 12 18 1005.1 1003.8 7.0
08/04:51pm 20.6 20.0 20.4 99 0.1 WSW 24 43 13 23 1004.7 1003.5 6.6
08/04:34pm 20.3 15.9 20.1 99 0.1 WSW 43 63 23 34 1004.2 1003.0 4.8
08/04:30pm 20.3 13.5 19.5 95 0.5 WSW 54 83 29 45 1004.2 1003.0 3.8
08/04:27pm 20.5 13.3 18.6 89 1.2 WSW 54 83 29 45 1004.1 1002.9 2.0
08/04:23pm 22.9 15.3 16.7 68 3.8 WSW 52 83 28 45 1004.5 1003.3 0.0
08/04:22pm 24.4 17.1 15.6 58 5.4 SW 48 83 26 45 1004.2 1003.0 0.0
08/04:20pm 27.8 21.0 14.4 43 8.1 SW 43 82 23 44 1003.5 1002.3 0.0
08/04:17pm 28.9 22.9 13.2 38 9.4 WSW 37 59 20 32 1002.7 1001.5 0.0
08/04:13pm 29.8 24.4 12.3 34 10.3 W 32 46 17 25 1001.6 1000.4 0.0
08/04:00pm 33.7 29.6 12.7 28 12.7 WNW 26 39 14 21 1000.7 999.4 0.0
08/03:30pm 35.3 31.8 13.5 27 13.4 WNW 24 33 13 18 1001.0 999.7 0.0
08/03:09pm 35.3 30.9 12.9 26 13.7 WNW 28 46 15 25 1001.4 1000.2 0.0
08/03:00pm 35.0 30.3 12.0 25 13.9 NW 28 43 15 23 1001.3 1000.1 0.0
08/02:30pm 34.7 29.4 12.4 26 13.5 NW 32 46 17 25 1001.7 1000.5 0.0
08/02:00pm 35.5 31.0 12.5 25 14.0 NW 28 43 15 23 1002.7 1001.5 0.0
08/01:49pm 34.2 29.5 12.0 26 13.3 NW 28 48 15 26 1003.0 1001.8 0.0
08/01:30pm 34.5 29.3 11.6 25 13.7 WNW 30 43 16 23 1003.6 1002.4 0.0
08/01:00pm 34.0 29.1 11.2 25 13.5 NW 28 46 15 25 1004.0 1002.8 0.0
08/12:30pm 32.8 28.4 12.9 29 12.0 WNW 28 43 15 23 1004.8 1003.6 0.0
08/12:00pm 31.5 26.5 13.3 33 11.0 NW 32 44 17 24 1005.4 1004.2 0.0
08/11:30am 31.5 27.7 14.6 36 10.4 NW 28 43 15 23 1005.7 1004.5 0.0
08/11:00am 31.2 26.8 15.6 39 9.8 NW 33 46 18 25 1006.1 1004.9 0.0
08/10:31am 29.7 25.5 15.8 43 8.7 NNW 32 50 17 27 1006.3 1005.1 0.0
08/10:30am 28.9 24.1 14.7 42 8.7 NNW 33 50 18 27 1006.3 1005.1 0.0
08/10:00am 28.9 24.0 15.4 44 8.4 NNW 35 48 19 26 1006.5 1005.3 0.0
08/09:30am 28.1 24.3 15.7 46 7.7 NW 30 39 16 21 1006.9 1005.7 0.0
08/09:00am 27.7 24.5 15.4 47 7.6 N 26 35 14 19 1006.9 1005.7 0.2
08/08:30am 26.7 24.2 15.1 49 7.1 NNW 22 32 12 17 1007.0 1005.8 0.2
08/08:00am 25.1 22.5 13.3 48 7.0 N 19 24 10 13 1007.0 1005.8 0.2
08/07:30am 23.1 22.0 13.0 53 5.9 NNE 11 15 6 8 1007.1 1005.9 0.2
08/07:00am 20.1 19.6 12.1 60 4.5 NE 6 7 3 4 1007.7 1006.5 0.2
08/06:30am 18.8 17.4 12.1 65 3.8 NE 11 13 6 7 1007.4 1006.2 0.2
08/06:00am 18.0 16.2 12.2 69 3.2 NE 13 15 7 8 1007.3 1006.1 0.2
08/05:30am 18.4 17.1 12.4 68 3.4 NE 11 13 6 7 1007.2 1006.0 0.2
08/05:00am 19.1 17.5 11.7 62 4.1 NE 11 13 6 7 1007.3 1006.1 0.2
08/04:30am 19.3 17.4 11.8 62 4.2 NE 13 15 7 8 1007.3 1006.1 0.2
08/04:00am 19.1 18.0 12.1 64 3.9 NNE 9 11 5 6 1007.5 1006.3 0.2
08/03:30am 18.8 18.1 12.1 65 3.8 NE 7 9 4 5 1007.8 1006.6 0.2
08/03:00am 19.6 18.9 12.1 62 4.2 NE 7 9 4 5 1008.2 1007.0 0.2
08/02:30am 19.4 18.0 12.2 63 4.1 NNE 11 17 6 9 1008.8 1007.6 0.2
08/02:00am 18.4 19.5 14.5 78 2.3 NE 2 7 1 4 1009.2 1008.1 0.2
08/01:30am 19.0 18.9 13.4 70 3.2 NE 6 7 3 4 1009.6 1008.5 0.2
08/01:00am 19.1 19.8 14.4 74 2.8 NE 4 9 2 5 1009.9 1008.7 0.2
08/12:30am 20.4 20.6 12.9 62 4.3 ENE 4 7 2 4 1010.1 1008.9 0.2
08/12:00am 20.7 20.4 13.2 62 4.3 ENE 7 9 4 5 1010.3 1009.1 0.2
 
Date/Time
EDT
Temp
°C
App
Temp
°C
Dew
Point
°C
Rel
Hum
%
Delta-T
°C
Wind Press
QNH
hPa
Press
MSL
hPa
Rain since
9am
mm
Dir  Spd
km/h
Gust
km/h
Spd
kts
Gust
kts
07/11:30pm 21.4 21.3 13.8 62 4.4 NE 7 11 4 6 1010.5 1009.3 0.2
07/11:00pm 21.8 21.0 12.9 57 5.1 NE 9 11 5 6 1010.7 1009.5 0.2
07/10:30pm 22.3 21.5 12.8 55 5.5 ENE 9 11 5 6 1010.6 1009.4 0.2
07/10:00pm 22.8 22.2 12.4 52 6.0 NE 7 9 4 5 1010.7 1009.5 0.2
07/09:30pm 24.5 25.6 13.4 50 6.5 CALM 0 2 0 1 1010.7 1009.5 0.2
07/09:00pm 25.6 23.6 10.2 38 8.6 SE 11 11 6 6 1010.9 1009.7 0.2
07/08:30pm 27.0 25.2 9.4 33 9.8 SSE 9 11 5 6 1011.0 1009.8 0.2
07/08:00pm 29.0 26.9 8.1 27 11.5 SSE 9 13 5 7 1011.1 1009.9 0.2
07/07:30pm 30.6 29.7 7.7 24 12.6 E 2 11 1 6 1011.1 1009.9 0.2
07/07:00pm 31.2 29.6 8.2 24 12.8 WNW 6 9 3 5 1011.2 1010.0 0.2
07/06:30pm 31.0 28.9 8.1 24 12.7 NW 9 13 5 7 1011.3 1010.1 0.2
07/06:00pm 31.4 29.3 8.4 24 12.9 SW 9 13 5 7 1011.4 1010.2 0.2
07/05:30pm 30.9 28.2 7.4 23 12.9 SW 11 19 6 10 1011.6 1010.4 0.2
07/05:00pm 31.0 28.5 8.1 24 12.7 WSW 11 19 6 10 1011.7 1010.5 0.2
07/04:30pm 30.7 27.5 8.4 25 12.4 WSW 15 20 8 11 1012.2 1011.0 0.2
07/04:00pm 30.0 27.7 9.0 27 11.8 S 11 22 6 12 1012.5 1011.3 0.2
07/03:30pm 29.9 28.0 8.9 27 11.8 SSE 9 20 5 11 1012.9 1011.7 0.2
07/03:00pm 29.4 27.6 9.5 29 11.2 SSW 9 17 5 9 1013.2 1012.0 0.2
07/02:30pm 28.6 26.4 9.3 30 10.8 W 11 19 6 10 1013.6 1012.5 0.2
07/02:00pm 27.6 26.5 9.9 33 10.0 N 6 11 3 6 1014.1 1013.0 0.2
07/01:30pm 27.5 25.8 9.8 33 9.9 SW 9 19 5 10 1014.7 1013.5 0.2
07/01:00pm 26.7 25.0 10.0 35 9.4 NW 9 13 5 7 1015.3 1014.1 0.2
07/12:30pm 25.6 24.2 9.4 36 9.0 WSW 7 13 4 7 1015.6 1014.4 0.2
07/12:00pm 24.7 23.4 11.3 43 7.6 N 9 17 5 9 1016.1 1014.9 0.2
07/11:30am 24.5 24.0 12.1 46 7.1 ESE 6 11 3 6 1016.5 1015.3 0.2
07/11:00am 23.5 22.5 10.9 45 7.1 N 7 13 4 7 1016.9 1015.7 0.2
07/10:30am 22.9 22.1 12.8 53 5.8 NW 9 15 5 8 1016.9 1015.7 0.2
07/10:00am 22.3 22.0 13.4 57 5.2 E 7 13 4 7 1016.9 1015.7 0.2
07/09:30am 21.3 20.8 12.7 58 4.9 ENE 7 11 4 6 1016.8 1015.6 0.0
07/09:00am 20.2 19.8 12.9 63 4.2 E 7 11 4 6 1017.0 1015.8 4.8
07/08:30am 18.3 19.6 15.2 82 1.8 ENE 2 9 1 5 1017.0 1015.8 4.8
07/08:00am 17.5 19.5 17.0 97 0.3 NE 2 7 1 4 1016.5 1015.3 4.8
07/07:30am 16.3 18.3 16.1 99 0.1 CALM 0 0 0 0 1016.0 1014.8 4.8
07/07:26am 16.2 18.3 16.2 100 0.0 CALM 0 0 0 0 1016.0 1014.8 4.8
07/07:08am 15.6 17.4 15.6 100 0.0 CALM 0 0 0 0 1015.8 1014.6 4.8
07/07:00am 15.5 17.2 15.3 99 0.1 CALM 0 0 0 0 1015.7 1014.5 4.8
07/06:30am 14.8 16.3 14.6 99 0.1 CALM 0 0 0 0 1015.4 1014.2 4.8
07/06:00am 15.0 16.2 14.8 99 0.1 NE 2 7 1 4 1015.2 1014.0 4.8
07/05:30am 15.4 16.0 15.2 99 0.1 SSE 6 7 3 4 1014.3 1013.2 4.8
07/05:00am 15.6 16.6 15.4 99 0.1 SE 4 9 2 5 1014.2 1013.1 4.8
07/04:30am 15.9 17.0 15.7 99 0.1 ESE 4 7 2 4 1014.0 1012.9 4.8
07/04:00am 16.2 16.9 16.0 99 0.1 SSE 7 11 4 6 1013.7 1012.6 4.8
07/03:30am 16.4 16.5 16.4 100 0.0 S 11 17 6 9 1013.3 1012.2 4.8
07/03:00am 16.6 16.7 16.4 99 0.1 S 11 13 6 7 1014.0 1012.9 4.8
07/02:30am 16.9 18.0 16.7 99 0.1 SSW 6 7 3 4 1014.4 1013.3 4.8
07/02:00am 17.2 18.3 17.0 99 0.1 SSW 7 11 4 6 1014.7 1013.5 4.8
07/01:30am 17.8 17.6 17.6 99 0.1 SSW 15 20 8 11 1014.8 1013.6 4.8
07/01:00am 18.4 20.1 18.4 100 0.0 SSW 7 9 4 5 1014.7 1013.5 4.8
07/12:30am 18.5 20.2 18.5 100 0.0 SSW 7 9 4 5 1014.8 1013.6 4.8
07/12:00am 18.7 19.3 18.7 100 0.0 SW 13 19 7 10 1015.3 1014.1 4.8
 
Date/Time
EDT
Temp
°C
App
Temp
°C
Dew
Point
°C
Rel
Hum
%
Delta-T
°C
Wind Press
QNH
hPa
Press
MSL
hPa
Rain since
9am
mm
Dir  Spd
km/h
Gust
km/h
Spd
kts
Gust
kts
06/11:30pm 19.1 22.4 19.1 100 0.0 CALM 0 0 0 0 1015.1 1013.9 4.8
06/11:11pm 19.1 21.3 19.1 100 0.0 SW 6 9 3 5 1016.2 1015.0 4.8
06/11:00pm 19.1 22.4 19.1 100 0.0 CALM 0 0 0 0 1016.1 1014.9 4.8
06/10:30pm 19.1 20.3 19.1 100 0.0 W 11 15 6 8 1016.5 1015.3 4.8
06/10:00pm 19.2 21.2 19.2 100 0.0 NNW 7 9 4 5 1015.6 1014.4 4.8
06/09:30pm 19.0 21.9 19.0 100 0.0 SE 2 7 1 4 1014.8 1013.6 4.6
06/09:00pm 18.9 21.0 18.9 100 0.0 WSW 6 7 3 4 1014.9 1013.7 4.6
06/08:30pm 18.9 20.4 18.9 100 0.0 SW 9 13 5 7 1015.4 1014.2 4.0
06/08:00pm 18.9 20.0 18.9 100 0.0 SSW 11 13 6 7 1014.7 1013.5 3.0
06/07:36pm 18.9 19.5 18.7 99 0.1 SSW 13 19 7 10 1014.7 1013.5 2.4
06/07:30pm 19.0 19.7 18.8 99 0.1 SSW 13 17 7 9 1015.0 1013.8 2.4
06/07:16pm 19.2 20.7 19.0 99 0.1 SSW 9 11 5 6 1014.9 1013.7 1.6
06/07:00pm 19.3 21.1 18.8 97 0.3 SSW 7 11 4 6 1014.8 1013.6 1.2
06/06:30pm 19.3 20.8 18.8 97 0.3 S 9 11 5 6 1014.4 1013.3 1.2
06/06:00pm 19.2 20.3 18.9 98 0.2 SSW 11 15 6 8 1014.3 1013.2 1.2
06/05:30pm 19.2 19.8 18.5 96 0.4 SSE 13 17 7 9 1014.1 1013.0 0.8
06/05:00pm 19.3 20.4 18.8 97 0.3 SSE 11 15 6 8 1014.0 1012.9 0.8
06/04:30pm 19.3 19.1 18.6 96 0.4 SSW 17 24 9 13 1014.5 1013.4 0.6
06/04:00pm 20.0 19.5 17.8 87 1.4 SSW 17 24 9 13 1014.3 1013.2 0.6
06/03:30pm 20.9 20.1 17.1 79 2.3 SSW 17 22 9 12 1014.2 1013.1 0.6
06/03:00pm 21.2 20.0 17.6 80 2.2 SSE 20 30 11 16 1013.9 1012.8 0.6
06/02:30pm 20.4 19.6 18.5 89 1.2 S 20 30 11 16 1014.4 1013.3 0.6
06/02:25pm 20.4 19.5 19.1 92 0.8 S 22 33 12 18 1014.7 1013.5 0.6
06/02:05pm 20.2 20.0 19.4 95 0.5 SSW 19 28 10 15 1014.8 1013.6 0.6
06/02:00pm 20.1 20.0 19.6 97 0.3 SSW 19 26 10 14 1015.0 1013.8 0.6
06/01:30pm 20.5 20.0 19.2 92 0.8 SSW 20 30 11 16 1015.1 1013.9 0.4
06/01:19pm 20.7 20.7 19.7 94 0.6 S 19 24 10 13 1014.9 1013.7 0.4
06/01:00pm 20.5 18.5 18.4 88 1.3 SW 26 37 14 20 1015.7 1014.5 0.2
06/12:30pm 23.1 23.2 19.9 82 2.1 SSW 19 26 10 14 1015.1 1013.9 0.0
06/12:00pm 23.5 23.2 16.5 65 4.3 S 13 20 7 11 1014.5 1013.4 0.0
06/11:30am 23.2 21.8 16.5 66 4.1 SSW 19 24 10 13 1015.3 1014.1 0.0
06/11:00am 22.7 22.0 16.3 67 3.9 S 15 19 8 10 1014.8 1013.6 0.0
06/10:30am 22.0 22.2 16.7 72 3.3 S 11 19 6 10 1015.0 1013.8 0.0
06/10:00am 20.9 20.5 16.3 75 2.8 SSW 13 17 7 9 1015.1 1013.9 0.0
06/09:30am 21.7 20.2 16.4 72 3.2 SW 19 26 10 14 1015.4 1014.2 0.0
06/09:00am 22.1 20.5 16.6 71 3.4 SW 20 28 11 15 1014.9 1013.7 2.4
06/08:30am 21.1 19.6 16.7 76 2.7 SSW 20 30 11 16 1013.8 1012.7 2.4
06/08:00am 20.9 22.4 18.1 84 1.8 SW 7 11 4 6 1013.5 1012.4 2.4
06/07:30am 21.2 22.8 19.1 88 1.3 W 9 11 5 6 1013.3 1012.2 2.4
06/07:00am 20.8 23.8 18.4 86 1.5 CALM 0 0 0 0 1012.2 1011.0 2.4
06/06:30am 20.6 23.6 18.4 87 1.4 CALM 0 0 0 0 1011.7 1010.5 2.4
06/06:00am 20.5 23.4 18.1 86 1.5 CALM 0 6 0 3 1011.5 1010.3 2.4
06/05:30am 20.4 22.6 17.4 83 1.9 SSW 2 6 1 3 1011.6 1010.4 2.4
06/05:00am 20.3 20.9 16.9 81 2.1 NNW 9 17 5 9 1011.4 1010.2 2.4
06/04:30am 20.7 21.6 16.5 77 2.6 E 7 11 4 6 1011.0 1009.8 2.4
06/04:00am 21.0 21.8 15.8 72 3.1 W 6 6 3 3 1011.8 1010.6 2.4
06/03:30am 21.2 21.9 15.7 71 3.3 SW 6 9 3 5 1011.5 1010.3 2.4
06/03:00am 21.2 21.6 16.2 73 3.0 WSW 9 11 5 6 1011.6 1010.4 2.4
06/02:30am 21.7 22.0 16.0 70 3.5 SW 9 11 5 6 1011.0 1009.8 2.4
06/02:00am 22.3 22.5 17.7 75 2.9 SSW 13 17 7 9 1011.3 1010.1 2.4
06/01:30am 22.8 24.5 20.1 85 1.8 WSW 11 17 6 9 1011.7 1010.5 2.4

Other Formats:

Comma delimited format used in spreadsheet applications
http://www.bom.gov.au/fwo/IDN60801/IDN60801.94710.axf

JavaScript Object Notation format (JSON) in row-major order
http://www.bom.gov.au/fwo/IDN60801/IDN60801.94710.json